עמוד ראשי
METAR-TAF:

METAR-TAF

שדות תעופה :

Bradshaw Army Air Field

Bradshaw, הוואי, ארצות הברית

קו רוחב: 19-47N, קו אורך: 155-33W, גובה: 1887מטר

תצפית מזג אוויר נוכחית

הדו"ח נערך לפני 46דקות, בשעה 08:55 UTC
רוח 7קשר מכיוון מזרח/דרום-מזרח
טמפרטורת 12 צלסיוס
לחות 82%
לחץ 1029 hPa
ראות: 16.1קילומטר
שמיים נקיים

METAR: PHSF 240855Z AUTO 11007KT 10SM CLR 12/09 A3039 RMK AO2 SLP170 T01220094 51008 $

זמן: 23:41 (09:41 UTC)


TAF: חסר

תצפיות ותחזיות מזג אוויר לגבי יותר מ- 4,000 שדות תעופה ברחבי העולם. דוחות METAR ו- TAF.

התחנות הזמינות מסומנות בנקודות צהובות ואדומות על גבי המפה.

העבר את העכבר לנקודה הצבעונית על מנת לראות את שם התחנה.

לאחר מכן, לחץ כדי לראות את תוכן ואת תחזיות מזג האוויר.

כדי לשנות את המפה: לחץ על הכפתורים הירוקים עם הפלוס השחור כדי להתקרב; על הכפתור הירוק עם המקף כדי להתרחק; או בחיצים הירוקים למפות סמוכות.


METAR-TAF: